sensor_id;sensor_type;location;lat;lon;timestamp;P1;durP1;ratioP1;P2;durP2;ratioP2
59876;SDS011;45749;51.140;17.184;2023-02-28T00:00:43;45.40;;;24.42;;
59876;SDS011;45749;51.140;17.184;2023-02-28T00:03:09;43.08;;;24.17;;
59876;SDS011;45749;51.140;17.184;2023-02-28T00:05:34;40.30;;;24.02;;
59876;SDS011;45749;51.140;17.184;2023-02-28T00:07:59;50.22;;;25.92;;
59876;SDS011;45749;51.140;17.184;2023-02-28T00:10:26;59.03;;;29.27;;
59876;SDS011;45749;51.140;17.184;2023-02-28T00:12:55;76.70;;;37.50;;
59876;SDS011;45749;51.140;17.184;2023-02-28T00:15:24;67.22;;;33.30;;
59876;SDS011;45749;51.140;17.184;2023-02-28T00:17:50;62.83;;;32.15;;
59876;SDS011;45749;51.140;17.184;2023-02-28T00:20:16;63.05;;;31.77;;
59876;SDS011;45749;51.140;17.184;2023-02-28T00:22:44;67.63;;;32.33;;
59876;SDS011;45749;51.140;17.184;2023-02-28T00:25:12;71.68;;;35.58;;
59876;SDS011;45749;51.140;17.184;2023-02-28T00:27:39;70.88;;;34.22;;
59876;SDS011;45749;51.140;17.184;2023-02-28T00:30:07;59.70;;;30.08;;
59876;SDS011;45749;51.140;17.184;2023-02-28T00:32:35;60.97;;;29.83;;
59876;SDS011;45749;51.140;17.184;2023-02-28T00:35:01;96.43;;;46.17;;
59876;SDS011;45749;51.140;17.184;2023-02-28T00:37:27;103.38;;;49.65;;
59876;SDS011;45749;51.140;17.184;2023-02-28T00:39:52;70.65;;;36.03;;
59876;SDS011;45749;51.140;17.184;2023-02-28T00:42:18;53.13;;;27.25;;
59876;SDS011;45749;51.140;17.184;2023-02-28T00:44:43;48.28;;;25.50;;
59876;SDS011;45749;51.140;17.184;2023-02-28T00:47:08;48.95;;;25.42;;
59876;SDS011;45749;51.140;17.184;2023-02-28T00:49:34;60.20;;;30.23;;
59876;SDS011;45749;51.140;17.184;2023-02-28T00:51:59;65.40;;;29.80;;
59876;SDS011;45749;51.140;17.184;2023-02-28T00:54:25;66.40;;;32.03;;
59876;SDS011;45749;51.140;17.184;2023-02-28T00:56:51;65.93;;;34.45;;
59876;SDS011;45749;51.140;17.184;2023-02-28T00:59:16;94.53;;;41.60;;
59876;SDS011;45749;51.140;17.184;2023-02-28T01:01:43;80.03;;;37.92;;
59876;SDS011;45749;51.140;17.184;2023-02-28T01:04:11;54.08;;;27.27;;
59876;SDS011;45749;51.140;17.184;2023-02-28T01:06:37;62.65;;;31.58;;
59876;SDS011;45749;51.140;17.184;2023-02-28T01:09:03;79.18;;;39.42;;
59876;SDS011;45749;51.140;17.184;2023-02-28T01:11:30;77.30;;;36.45;;
59876;SDS011;45749;51.140;17.184;2023-02-28T01:13:55;78.13;;;37.75;;
59876;SDS011;45749;51.140;17.184;2023-02-28T01:16:21;42.08;;;23.95;;
59876;SDS011;45749;51.140;17.184;2023-02-28T01:18:47;40.30;;;21.40;;
59876;SDS011;45749;51.140;17.184;2023-02-28T01:21:14;37.50;;;21.13;;
59876;SDS011;45749;51.140;17.184;2023-02-28T01:23:41;41.70;;;21.48;;
59876;SDS011;45749;51.140;17.184;2023-02-28T01:26:08;38.97;;;21.67;;
59876;SDS011;45749;51.140;17.184;2023-02-28T01:28:36;38.00;;;20.35;;
59876;SDS011;45749;51.140;17.184;2023-02-28T01:31:02;34.10;;;20.70;;
59876;SDS011;45749;51.140;17.184;2023-02-28T01:33:28;36.50;;;21.13;;
59876;SDS011;45749;51.140;17.184;2023-02-28T01:36:00;33.15;;;21.40;;
59876;SDS011;45749;51.140;17.184;2023-02-28T01:38:28;37.03;;;19.13;;
59876;SDS011;45749;51.140;17.184;2023-02-28T01:40:54;37.60;;;19.42;;
59876;SDS011;45749;51.140;17.184;2023-02-28T01:43:24;39.38;;;20.38;;
59876;SDS011;45749;51.140;17.184;2023-02-28T01:45:54;34.88;;;19.08;;
59876;SDS011;45749;51.140;17.184;2023-02-28T01:48:24;35.25;;;19.75;;
59876;SDS011;45749;51.140;17.184;2023-02-28T01:50:52;33.47;;;20.75;;
59876;SDS011;45749;51.140;17.184;2023-02-28T01:53:24;34.55;;;20.35;;
59876;SDS011;45749;51.140;17.184;2023-02-28T01:55:58;40.13;;;19.83;;
59876;SDS011;45749;51.140;17.184;2023-02-28T01:58:24;36.65;;;21.17;;
59876;SDS011;45749;51.140;17.184;2023-02-28T02:00:50;33.65;;;20.27;;
59876;SDS011;45749;51.140;17.184;2023-02-28T02:03:17;37.05;;;21.30;;
59876;SDS011;45749;51.140;17.184;2023-02-28T02:05:45;39.53;;;20.95;;
59876;SDS011;45749;51.140;17.184;2023-02-28T02:08:18;33.17;;;19.92;;
59876;SDS011;45749;51.140;17.184;2023-02-28T02:16:26;34.67;;;21.20;;
59876;SDS011;45749;51.140;17.184;2023-02-28T02:18:54;35.13;;;19.85;;
59876;SDS011;45749;51.140;17.184;2023-02-28T02:24:28;39.25;;;20.33;;
59876;SDS011;45749;51.140;17.184;2023-02-28T02:27:20;31.20;;;20.27;;
59876;SDS011;45749;51.140;17.184;2023-02-28T02:35:44;36.78;;;20.50;;
59876;SDS011;45749;51.140;17.184;2023-02-28T02:38:25;33.85;;;20.48;;
59876;SDS011;45749;51.140;17.184;2023-02-28T02:41:04;36.35;;;20.42;;
59876;SDS011;45749;51.140;17.184;2023-02-28T02:46:37;35.80;;;21.08;;
59876;SDS011;45749;51.140;17.184;2023-02-28T02:49:05;33.58;;;18.73;;
59876;SDS011;45749;51.140;17.184;2023-02-28T02:51:33;33.35;;;20.50;;
59876;SDS011;45749;51.140;17.184;2023-02-28T02:56:54;34.42;;;20.38;;
59876;SDS011;45749;51.140;17.184;2023-02-28T02:59:22;33.10;;;18.58;;
59876;SDS011;45749;51.140;17.184;2023-02-28T03:01:51;34.55;;;19.63;;
59876;SDS011;45749;51.140;17.184;2023-02-28T03:04:21;33.10;;;18.27;;
59876;SDS011;45749;51.140;17.184;2023-02-28T03:06:50;31.77;;;19.23;;
59876;SDS011;45749;51.140;17.184;2023-02-28T03:09:23;36.53;;;20.10;;
59876;SDS011;45749;51.140;17.184;2023-02-28T03:11:51;32.15;;;18.52;;
59876;SDS011;45749;51.140;17.184;2023-02-28T03:27:48;40.55;;;21.05;;
59876;SDS011;45749;51.140;17.184;2023-02-28T03:33:20;33.70;;;19.80;;
59876;SDS011;45749;51.140;17.184;2023-02-28T03:35:56;33.35;;;20.02;;
59876;SDS011;45749;51.140;17.184;2023-02-28T03:40:55;33.15;;;20.70;;
59876;SDS011;45749;51.140;17.184;2023-02-28T03:43:29;36.40;;;19.60;;
59876;SDS011;45749;51.140;17.184;2023-02-28T03:45:59;36.22;;;18.88;;
59876;SDS011;45749;51.140;17.184;2023-02-28T03:48:34;32.65;;;20.13;;
59876;SDS011;45749;51.140;17.184;2023-02-28T03:51:02;31.27;;;19.70;;
59876;SDS011;45749;51.140;17.184;2023-02-28T03:53:32;34.20;;;21.48;;
59876;SDS011;45749;51.140;17.184;2023-02-28T03:56:07;37.58;;;19.90;;
59876;SDS011;45749;51.140;17.184;2023-02-28T04:01:41;32.08;;;19.63;;
59876;SDS011;45749;51.140;17.184;2023-02-28T04:04:09;31.38;;;19.20;;
59876;SDS011;45749;51.140;17.184;2023-02-28T04:06:35;29.80;;;17.58;;
59876;SDS011;45749;51.140;17.184;2023-02-28T04:09:02;36.75;;;20.08;;
59876;SDS011;45749;51.140;17.184;2023-02-28T04:13:59;35.97;;;21.08;;
59876;SDS011;45749;51.140;17.184;2023-02-28T04:16:25;32.58;;;19.35;;
59876;SDS011;45749;51.140;17.184;2023-02-28T04:18:50;35.58;;;20.25;;
59876;SDS011;45749;51.140;17.184;2023-02-28T04:21:16;33.97;;;19.95;;
59876;SDS011;45749;51.140;17.184;2023-02-28T04:23:45;35.50;;;19.80;;
59876;SDS011;45749;51.140;17.184;2023-02-28T04:26:11;30.48;;;19.27;;
59876;SDS011;45749;51.140;17.184;2023-02-28T04:28:37;37.83;;;21.30;;
59876;SDS011;45749;51.140;17.184;2023-02-28T04:31:03;32.05;;;19.92;;
59876;SDS011;45749;51.140;17.184;2023-02-28T04:33:30;38.22;;;20.48;;
59876;SDS011;45749;51.140;17.184;2023-02-28T04:36:01;38.58;;;24.05;;
59876;SDS011;45749;51.140;17.184;2023-02-28T04:38:28;34.28;;;22.67;;
59876;SDS011;45749;51.140;17.184;2023-02-28T04:40:58;38.85;;;22.80;;
59876;SDS011;45749;51.140;17.184;2023-02-28T04:43:28;36.63;;;23.00;;
59876;SDS011;45749;51.140;17.184;2023-02-28T04:45:54;36.42;;;22.98;;
59876;SDS011;45749;51.140;17.184;2023-02-28T04:48:23;38.00;;;21.13;;
59876;SDS011;45749;51.140;17.184;2023-02-28T04:50:50;37.97;;;22.63;;
59876;SDS011;45749;51.140;17.184;2023-02-28T04:53:16;41.85;;;23.85;;
59876;SDS011;45749;51.140;17.184;2023-02-28T04:55:41;34.08;;;22.08;;
59876;SDS011;45749;51.140;17.184;2023-02-28T04:58:07;37.05;;;21.00;;
59876;SDS011;45749;51.140;17.184;2023-02-28T05:00:32;34.00;;;22.13;;
59876;SDS011;45749;51.140;17.184;2023-02-28T05:02:58;33.70;;;19.40;;
59876;SDS011;45749;51.140;17.184;2023-02-28T05:05:23;32.28;;;18.73;;
59876;SDS011;45749;51.140;17.184;2023-02-28T05:07:49;33.10;;;19.75;;
59876;SDS011;45749;51.140;17.184;2023-02-28T05:10:14;33.83;;;18.52;;
59876;SDS011;45749;51.140;17.184;2023-02-28T05:12:40;32.88;;;19.60;;
59876;SDS011;45749;51.140;17.184;2023-02-28T05:15:05;32.63;;;19.40;;
59876;SDS011;45749;51.140;17.184;2023-02-28T05:17:31;31.15;;;17.85;;
59876;SDS011;45749;51.140;17.184;2023-02-28T05:19:56;29.88;;;17.20;;
59876;SDS011;45749;51.140;17.184;2023-02-28T05:22:22;31.90;;;18.15;;
59876;SDS011;45749;51.140;17.184;2023-02-28T05:24:47;27.13;;;16.75;;
59876;SDS011;45749;51.140;17.184;2023-02-28T05:27:13;29.13;;;16.75;;
59876;SDS011;45749;51.140;17.184;2023-02-28T05:29:38;30.95;;;17.95;;
59876;SDS011;45749;51.140;17.184;2023-02-28T05:32:10;27.50;;;16.05;;
59876;SDS011;45749;51.140;17.184;2023-02-28T05:34:39;28.02;;;17.27;;
59876;SDS011;45749;51.140;17.184;2023-02-28T05:37:07;33.65;;;19.33;;
59876;SDS011;45749;51.140;17.184;2023-02-28T05:39:37;29.40;;;17.88;;
59876;SDS011;45749;51.140;17.184;2023-02-28T05:42:03;30.90;;;17.88;;
59876;SDS011;45749;51.140;17.184;2023-02-28T05:44:29;35.25;;;18.98;;
59876;SDS011;45749;51.140;17.184;2023-02-28T05:46:54;30.17;;;18.05;;
59876;SDS011;45749;51.140;17.184;2023-02-28T05:49:20;28.05;;;17.58;;
59876;SDS011;45749;51.140;17.184;2023-02-28T05:51:45;30.55;;;18.10;;
59876;SDS011;45749;51.140;17.184;2023-02-28T05:54:11;30.50;;;18.35;;
59876;SDS011;45749;51.140;17.184;2023-02-28T05:56:36;30.02;;;17.85;;
59876;SDS011;45749;51.140;17.184;2023-02-28T05:59:04;26.45;;;17.35;;
59876;SDS011;45749;51.140;17.184;2023-02-28T06:04:00;30.50;;;17.45;;
59876;SDS011;45749;51.140;17.184;2023-02-28T06:06:26;32.33;;;18.92;;
59876;SDS011;45749;51.140;17.184;2023-02-28T06:08:53;32.90;;;18.05;;
59876;SDS011;45749;51.140;17.184;2023-02-28T06:11:19;33.30;;;18.70;;
59876;SDS011;45749;51.140;17.184;2023-02-28T06:13:45;32.78;;;17.73;;
59876;SDS011;45749;51.140;17.184;2023-02-28T06:16:11;29.23;;;18.15;;
59876;SDS011;45749;51.140;17.184;2023-02-28T06:18:36;31.90;;;17.67;;
59876;SDS011;45749;51.140;17.184;2023-02-28T06:21:02;29.48;;;17.30;;
59876;SDS011;45749;51.140;17.184;2023-02-28T06:23:28;52.50;;;22.58;;
59876;SDS011;45749;51.140;17.184;2023-02-28T06:25:53;49.75;;;24.67;;
59876;SDS011;45749;51.140;17.184;2023-02-28T06:28:22;31.52;;;19.52;;
59876;SDS011;45749;51.140;17.184;2023-02-28T06:30:48;42.20;;;19.95;;
59876;SDS011;45749;51.140;17.184;2023-02-28T06:33:13;39.53;;;21.15;;
59876;SDS011;45749;51.140;17.184;2023-02-28T06:35:38;40.53;;;21.13;;
59876;SDS011;45749;51.140;17.184;2023-02-28T06:38:04;36.90;;;19.23;;
59876;SDS011;45749;51.140;17.184;2023-02-28T06:40:29;37.33;;;19.40;;
59876;SDS011;45749;51.140;17.184;2023-02-28T06:42:59;32.47;;;18.60;;
59876;SDS011;45749;51.140;17.184;2023-02-28T06:45:24;31.70;;;18.98;;
59876;SDS011;45749;51.140;17.184;2023-02-28T06:47:51;31.25;;;18.70;;
59876;SDS011;45749;51.140;17.184;2023-02-28T06:50:17;33.80;;;20.50;;
59876;SDS011;45749;51.140;17.184;2023-02-28T06:52:44;36.15;;;20.33;;
59876;SDS011;45749;51.140;17.184;2023-02-28T06:55:10;35.50;;;19.75;;
59876;SDS011;45749;51.140;17.184;2023-02-28T06:57:35;34.10;;;19.92;;
59876;SDS011;45749;51.140;17.184;2023-02-28T07:00:04;41.72;;;23.73;;
59876;SDS011;45749;51.140;17.184;2023-02-28T07:02:32;82.85;;;36.75;;
59876;SDS011;45749;51.140;17.184;2023-02-28T07:04:59;84.57;;;37.03;;
59876;SDS011;45749;51.140;17.184;2023-02-28T07:07:24;63.78;;;29.50;;
59876;SDS011;45749;51.140;17.184;2023-02-28T07:09:49;48.10;;;25.02;;
59876;SDS011;45749;51.140;17.184;2023-02-28T07:12:15;31.98;;;17.85;;
59876;SDS011;45749;51.140;17.184;2023-02-28T07:14:41;23.90;;;14.25;;
59876;SDS011;45749;51.140;17.184;2023-02-28T07:17:07;24.20;;;14.65;;
59876;SDS011;45749;51.140;17.184;2023-02-28T07:19:33;21.88;;;13.63;;
59876;SDS011;45749;51.140;17.184;2023-02-28T07:21:58;22.42;;;13.52;;
59876;SDS011;45749;51.140;17.184;2023-02-28T07:24:24;20.45;;;12.25;;
59876;SDS011;45749;51.140;17.184;2023-02-28T07:26:53;15.18;;;10.80;;
59876;SDS011;45749;51.140;17.184;2023-02-28T07:29:18;17.48;;;12.20;;
59876;SDS011;45749;51.140;17.184;2023-02-28T07:31:44;19.20;;;12.15;;
59876;SDS011;45749;51.140;17.184;2023-02-28T07:34:09;17.33;;;11.57;;
59876;SDS011;45749;51.140;17.184;2023-02-28T07:36:35;16.40;;;11.05;;
59876;SDS011;45749;51.140;17.184;2023-02-28T07:39:00;19.35;;;11.00;;
59876;SDS011;45749;51.140;17.184;2023-02-28T07:41:25;21.23;;;11.43;;
59876;SDS011;45749;51.140;17.184;2023-02-28T07:43:54;17.67;;;11.00;;
59876;SDS011;45749;51.140;17.184;2023-02-28T07:46:22;17.80;;;10.52;;
59876;SDS011;45749;51.140;17.184;2023-02-28T07:48:48;16.35;;;10.95;;
59876;SDS011;45749;51.140;17.184;2023-02-28T07:51:13;20.20;;;11.25;;
59876;SDS011;45749;51.140;17.184;2023-02-28T07:53:39;19.38;;;12.35;;
59876;SDS011;45749;51.140;17.184;2023-02-28T07:56:04;17.52;;;11.35;;
59876;SDS011;45749;51.140;17.184;2023-02-28T07:58:30;17.88;;;10.55;;
59876;SDS011;45749;51.140;17.184;2023-02-28T08:00:56;15.50;;;9.75;;
59876;SDS011;45749;51.140;17.184;2023-02-28T08:03:29;17.23;;;10.20;;
59876;SDS011;45749;51.140;17.184;2023-02-28T08:05:54;17.20;;;11.60;;
59876;SDS011;45749;51.140;17.184;2023-02-28T08:08:20;15.45;;;10.75;;
59876;SDS011;45749;51.140;17.184;2023-02-28T08:10:45;14.95;;;9.10;;
59876;SDS011;45749;51.140;17.184;2023-02-28T08:13:11;21.95;;;13.40;;
59876;SDS011;45749;51.140;17.184;2023-02-28T08:15:36;20.20;;;13.05;;
59876;SDS011;45749;51.140;17.184;2023-02-28T08:18:02;21.15;;;13.32;;
59876;SDS011;45749;51.140;17.184;2023-02-28T08:20:27;20.30;;;13.15;;
59876;SDS011;45749;51.140;17.184;2023-02-28T08:22:53;16.10;;;10.73;;
59876;SDS011;45749;51.140;17.184;2023-02-28T08:25:18;16.27;;;10.50;;
59876;SDS011;45749;51.140;17.184;2023-02-28T08:27:44;15.75;;;8.65;;
59876;SDS011;45749;51.140;17.184;2023-02-28T08:30:10;15.00;;;8.93;;
59876;SDS011;45749;51.140;17.184;2023-02-28T08:32:36;11.98;;;7.93;;
59876;SDS011;45749;51.140;17.184;2023-02-28T08:35:02;9.73;;;7.20;;
59876;SDS011;45749;51.140;17.184;2023-02-28T08:37:28;13.02;;;8.73;;
59876;SDS011;45749;51.140;17.184;2023-02-28T08:39:54;15.32;;;10.18;;
59876;SDS011;45749;51.140;17.184;2023-02-28T08:42:19;15.82;;;10.55;;
59876;SDS011;45749;51.140;17.184;2023-02-28T08:44:45;16.98;;;10.43;;
59876;SDS011;45749;51.140;17.184;2023-02-28T08:47:10;15.80;;;10.23;;
59876;SDS011;45749;51.140;17.184;2023-02-28T08:49:36;13.20;;;9.40;;
59876;SDS011;45749;51.140;17.184;2023-02-28T08:52:02;14.57;;;9.98;;
59876;SDS011;45749;51.140;17.184;2023-02-28T08:54:28;19.63;;;12.20;;
59876;SDS011;45749;51.140;17.184;2023-02-28T08:56:56;21.92;;;13.70;;
59876;SDS011;45749;51.140;17.184;2023-02-28T08:59:21;16.13;;;10.60;;
59876;SDS011;45749;51.140;17.184;2023-02-28T09:01:47;13.18;;;9.25;;
59876;SDS011;45749;51.140;17.184;2023-02-28T09:04:12;14.07;;;8.65;;
59876;SDS011;45749;51.140;17.184;2023-02-28T09:06:38;12.40;;;8.07;;
59876;SDS011;45749;51.140;17.184;2023-02-28T09:09:03;10.30;;;7.50;;
59876;SDS011;45749;51.140;17.184;2023-02-28T09:11:31;13.10;;;7.60;;
59876;SDS011;45749;51.140;17.184;2023-02-28T09:13:57;11.88;;;7.78;;
59876;SDS011;45749;51.140;17.184;2023-02-28T09:16:25;11.30;;;7.82;;
59876;SDS011;45749;51.140;17.184;2023-02-28T09:18:50;11.50;;;8.05;;
59876;SDS011;45749;51.140;17.184;2023-02-28T09:21:17;11.00;;;8.10;;
59876;SDS011;45749;51.140;17.184;2023-02-28T09:23:44;10.65;;;8.65;;
59876;SDS011;45749;51.140;17.184;2023-02-28T09:26:15;11.73;;;7.25;;
59876;SDS011;45749;51.140;17.184;2023-02-28T09:28:45;9.73;;;6.78;;
59876;SDS011;45749;51.140;17.184;2023-02-28T09:31:14;11.07;;;7.00;;
59876;SDS011;45749;51.140;17.184;2023-02-28T09:33:45;10.30;;;6.40;;
59876;SDS011;45749;51.140;17.184;2023-02-28T09:36:12;12.40;;;7.03;;
59876;SDS011;45749;51.140;17.184;2023-02-28T09:38:37;10.32;;;7.95;;
59876;SDS011;45749;51.140;17.184;2023-02-28T09:41:08;13.45;;;7.95;;
59876;SDS011;45749;51.140;17.184;2023-02-28T09:43:39;12.07;;;8.02;;
59876;SDS011;45749;51.140;17.184;2023-02-28T09:46:12;14.52;;;8.93;;
59876;SDS011;45749;51.140;17.184;2023-02-28T09:48:48;11.98;;;8.35;;
59876;SDS011;45749;51.140;17.184;2023-02-28T09:54:04;12.02;;;7.13;;
59876;SDS011;45749;51.140;17.184;2023-02-28T09:56:36;12.27;;;8.23;;
59876;SDS011;45749;51.140;17.184;2023-02-28T09:59:13;11.93;;;7.68;;
59876;SDS011;45749;51.140;17.184;2023-02-28T10:04:45;16.10;;;9.95;;
59876;SDS011;45749;51.140;17.184;2023-02-28T10:09:46;11.35;;;6.95;;
59876;SDS011;45749;51.140;17.184;2023-02-28T10:12:17;11.63;;;6.77;;
59876;SDS011;45749;51.140;17.184;2023-02-28T10:14:45;11.73;;;7.15;;
59876;SDS011;45749;51.140;17.184;2023-02-28T10:17:16;10.40;;;7.10;;
59876;SDS011;45749;51.140;17.184;2023-02-28T10:22:18;9.68;;;7.03;;
59876;SDS011;45749;51.140;17.184;2023-02-28T10:25:15;11.32;;;6.47;;
59876;SDS011;45749;51.140;17.184;2023-02-28T10:27:43;10.90;;;6.07;;
59876;SDS011;45749;51.140;17.184;2023-02-28T10:30:09;12.18;;;7.70;;
59876;SDS011;45749;51.140;17.184;2023-02-28T10:32:36;8.88;;;5.57;;
59876;SDS011;45749;51.140;17.184;2023-02-28T10:37:30;10.25;;;5.95;;
59876;SDS011;45749;51.140;17.184;2023-02-28T10:39:57;11.15;;;5.78;;
59876;SDS011;45749;51.140;17.184;2023-02-28T10:42:29;9.95;;;5.95;;
59876;SDS011;45749;51.140;17.184;2023-02-28T10:45:14;14.32;;;8.52;;
59876;SDS011;45749;51.140;17.184;2023-02-28T10:47:57;13.10;;;8.60;;
59876;SDS011;45749;51.140;17.184;2023-02-28T10:50:52;14.05;;;8.30;;
59876;SDS011;45749;51.140;17.184;2023-02-28T10:58:33;16.90;;;7.50;;
59876;SDS011;45749;51.140;17.184;2023-02-28T11:01:19;11.27;;;7.82;;
59876;SDS011;45749;51.140;17.184;2023-02-28T11:03:53;12.98;;;7.72;;
59876;SDS011;45749;51.140;17.184;2023-02-28T11:06:19;10.93;;;7.35;;
59876;SDS011;45749;51.140;17.184;2023-02-28T11:08:57;11.80;;;9.18;;
59876;SDS011;45749;51.140;17.184;2023-02-28T11:11:28;12.38;;;8.20;;
59876;SDS011;45749;51.140;17.184;2023-02-28T11:13:57;17.02;;;9.77;;
59876;SDS011;45749;51.140;17.184;2023-02-28T11:16:36;11.60;;;7.55;;
59876;SDS011;45749;51.140;17.184;2023-02-28T11:19:04;22.02;;;12.57;;
59876;SDS011;45749;51.140;17.184;2023-02-28T11:21:45;15.90;;;8.55;;
59876;SDS011;45749;51.140;17.184;2023-02-28T11:24:24;18.20;;;8.80;;
59876;SDS011;45749;51.140;17.184;2023-02-28T11:27:02;17.05;;;10.70;;
59876;SDS011;45749;51.140;17.184;2023-02-28T11:29:31;18.20;;;10.60;;
59876;SDS011;45749;51.140;17.184;2023-02-28T11:34:41;15.98;;;10.07;;
59876;SDS011;45749;51.140;17.184;2023-02-28T11:37:12;19.02;;;10.35;;
59876;SDS011;45749;51.140;17.184;2023-02-28T11:39:43;20.50;;;10.77;;
59876;SDS011;45749;51.140;17.184;2023-02-28T11:45:18;17.30;;;9.50;;
59876;SDS011;45749;51.140;17.184;2023-02-28T11:47:52;15.07;;;9.77;;
59876;SDS011;45749;51.140;17.184;2023-02-28T11:58:33;16.38;;;10.27;;
59876;SDS011;45749;51.140;17.184;2023-02-28T12:17:29;14.13;;;10.15;;
59876;SDS011;45749;51.140;17.184;2023-02-28T12:27:38;16.35;;;11.32;;
59876;SDS011;45749;51.140;17.184;2023-02-28T12:32:58;20.13;;;11.38;;
59876;SDS011;45749;51.140;17.184;2023-02-28T12:38:09;17.35;;;10.90;;
59876;SDS011;45749;51.140;17.184;2023-02-28T12:40:50;16.25;;;10.43;;
59876;SDS011;45749;51.140;17.184;2023-02-28T12:43:19;15.25;;;9.80;;
59876;SDS011;45749;51.140;17.184;2023-02-28T12:48:18;16.27;;;11.18;;
59876;SDS011;45749;51.140;17.184;2023-02-28T12:50:49;17.27;;;10.95;;
59876;SDS011;45749;51.140;17.184;2023-02-28T12:53:18;15.73;;;10.18;;
59876;SDS011;45749;51.140;17.184;2023-02-28T12:56:09;17.00;;;11.05;;
59876;SDS011;45749;51.140;17.184;2023-02-28T12:58:43;18.08;;;10.73;;
59876;SDS011;45749;51.140;17.184;2023-02-28T13:04:29;23.58;;;15.52;;
59876;SDS011;45749;51.140;17.184;2023-02-28T13:09:58;21.38;;;14.38;;
59876;SDS011;45749;51.140;17.184;2023-02-28T13:12:25;19.30;;;13.77;;
59876;SDS011;45749;51.140;17.184;2023-02-28T13:15:00;23.77;;;15.43;;
59876;SDS011;45749;51.140;17.184;2023-02-28T13:17:37;19.30;;;14.23;;
59876;SDS011;45749;51.140;17.184;2023-02-28T13:20:14;21.13;;;14.65;;
59876;SDS011;45749;51.140;17.184;2023-02-28T13:22:42;23.48;;;14.18;;
59876;SDS011;45749;51.140;17.184;2023-02-28T13:27:47;21.73;;;15.25;;
59876;SDS011;45749;51.140;17.184;2023-02-28T13:38:39;24.65;;;15.15;;
59876;SDS011;45749;51.140;17.184;2023-02-28T13:46:35;21.38;;;13.05;;
59876;SDS011;45749;51.140;17.184;2023-02-28T14:02:34;19.30;;;12.38;;
59876;SDS011;45749;51.140;17.184;2023-02-28T14:05:21;18.08;;;11.95;;
59876;SDS011;45749;51.140;17.184;2023-02-28T14:07:54;14.85;;;10.52;;
59876;SDS011;45749;51.140;17.184;2023-02-28T14:10:23;17.10;;;11.15;;
59876;SDS011;45749;51.140;17.184;2023-02-28T14:12:57;18.17;;;11.05;;
59876;SDS011;45749;51.140;17.184;2023-02-28T14:18:16;21.50;;;11.85;;
59876;SDS011;45749;51.140;17.184;2023-02-28T14:20:45;23.45;;;13.38;;
59876;SDS011;45749;51.140;17.184;2023-02-28T14:34:32;14.23;;;10.18;;
59876;SDS011;45749;51.140;17.184;2023-02-28T14:37:05;16.80;;;11.25;;
59876;SDS011;45749;51.140;17.184;2023-02-28T14:39:35;16.40;;;10.60;;
59876;SDS011;45749;51.140;17.184;2023-02-28T14:42:24;15.18;;;10.75;;
59876;SDS011;45749;51.140;17.184;2023-02-28T14:44:55;17.33;;;10.82;;
59876;SDS011;45749;51.140;17.184;2023-02-28T14:47:27;15.23;;;9.95;;
59876;SDS011;45749;51.140;17.184;2023-02-28T14:49:55;15.30;;;11.02;;
59876;SDS011;45749;51.140;17.184;2023-02-28T14:52:27;21.73;;;15.25;;
59876;SDS011;45749;51.140;17.184;2023-02-28T14:55:03;20.23;;;11.77;;
59876;SDS011;45749;51.140;17.184;2023-02-28T14:57:34;17.65;;;11.30;;
59876;SDS011;45749;51.140;17.184;2023-02-28T15:00:09;19.10;;;11.45;;
59876;SDS011;45749;51.140;17.184;2023-02-28T15:02:37;26.35;;;15.63;;
59876;SDS011;45749;51.140;17.184;2023-02-28T15:07:45;15.75;;;11.10;;
59876;SDS011;45749;51.140;17.184;2023-02-28T15:10:25;15.60;;;10.20;;
59876;SDS011;45749;51.140;17.184;2023-02-28T15:12:55;16.90;;;11.60;;
59876;SDS011;45749;51.140;17.184;2023-02-28T15:21:27;14.63;;;10.45;;
59876;SDS011;45749;51.140;17.184;2023-02-28T15:23:59;13.73;;;8.52;;
59876;SDS011;45749;51.140;17.184;2023-02-28T15:26:31;12.93;;;8.50;;
59876;SDS011;45749;51.140;17.184;2023-02-28T15:29:00;12.73;;;8.27;;
59876;SDS011;45749;51.140;17.184;2023-02-28T15:31:41;13.32;;;8.93;;
59876;SDS011;45749;51.140;17.184;2023-02-28T15:34:18;16.25;;;10.52;;
59876;SDS011;45749;51.140;17.184;2023-02-28T15:36:46;16.98;;;10.60;;
59876;SDS011;45749;51.140;17.184;2023-02-28T15:39:23;16.27;;;11.27;;
59876;SDS011;45749;51.140;17.184;2023-02-28T15:42:09;16.52;;;9.20;;
59876;SDS011;45749;51.140;17.184;2023-02-28T15:44:42;17.40;;;10.05;;
59876;SDS011;45749;51.140;17.184;2023-02-28T15:47:16;15.27;;;9.85;;
59876;SDS011;45749;51.140;17.184;2023-02-28T15:49:53;14.15;;;9.32;;
59876;SDS011;45749;51.140;17.184;2023-02-28T15:52:28;15.40;;;9.95;;
59876;SDS011;45749;51.140;17.184;2023-02-28T15:57:45;15.23;;;10.02;;
59876;SDS011;45749;51.140;17.184;2023-02-28T16:00:19;15.75;;;10.15;;
59876;SDS011;45749;51.140;17.184;2023-02-28T16:02:47;20.65;;;14.75;;
59876;SDS011;45749;51.140;17.184;2023-02-28T16:05:18;16.85;;;11.77;;
59876;SDS011;45749;51.140;17.184;2023-02-28T16:08:14;16.27;;;10.90;;
59876;SDS011;45749;51.140;17.184;2023-02-28T16:10:40;19.63;;;13.35;;
59876;SDS011;45749;51.140;17.184;2023-02-28T16:13:05;15.88;;;10.98;;
59876;SDS011;45749;51.140;17.184;2023-02-28T16:15:35;17.05;;;10.90;;
59876;SDS011;45749;51.140;17.184;2023-02-28T16:18:07;16.10;;;11.60;;
59876;SDS011;45749;51.140;17.184;2023-02-28T16:20:37;20.98;;;13.45;;
59876;SDS011;45749;51.140;17.184;2023-02-28T16:23:03;25.10;;;15.95;;
59876;SDS011;45749;51.140;17.184;2023-02-28T16:25:33;21.52;;;14.70;;
59876;SDS011;45749;51.140;17.184;2023-02-28T16:28:01;20.80;;;13.80;;
59876;SDS011;45749;51.140;17.184;2023-02-28T16:30:28;18.85;;;13.98;;
59876;SDS011;45749;51.140;17.184;2023-02-28T16:32:57;20.75;;;13.80;;
59876;SDS011;45749;51.140;17.184;2023-02-28T16:35:23;20.55;;;13.75;;
59876;SDS011;45749;51.140;17.184;2023-02-28T16:37:51;21.15;;;14.70;;
59876;SDS011;45749;51.140;17.184;2023-02-28T16:40:21;23.52;;;15.68;;
59876;SDS011;45749;51.140;17.184;2023-02-28T16:42:50;23.02;;;15.68;;
59876;SDS011;45749;51.140;17.184;2023-02-28T16:45:22;25.65;;;17.67;;
59876;SDS011;45749;51.140;17.184;2023-02-28T16:47:49;25.77;;;18.55;;
59876;SDS011;45749;51.140;17.184;2023-02-28T16:50:19;30.40;;;20.50;;
59876;SDS011;45749;51.140;17.184;2023-02-28T16:52:47;33.92;;;20.98;;
59876;SDS011;45749;51.140;17.184;2023-02-28T16:55:13;31.45;;;20.02;;
59876;SDS011;45749;51.140;17.184;2023-02-28T16:57:38;32.30;;;21.40;;
59876;SDS011;45749;51.140;17.184;2023-02-28T17:00:06;37.60;;;22.88;;
59876;SDS011;45749;51.140;17.184;2023-02-28T17:02:36;43.33;;;25.65;;
59876;SDS011;45749;51.140;17.184;2023-02-28T17:05:01;47.35;;;29.63;;
59876;SDS011;45749;51.140;17.184;2023-02-28T17:07:27;45.45;;;28.58;;
59876;SDS011;45749;51.140;17.184;2023-02-28T17:09:52;43.83;;;28.27;;
59876;SDS011;45749;51.140;17.184;2023-02-28T17:12:17;45.83;;;30.00;;
59876;SDS011;45749;51.140;17.184;2023-02-28T17:14:43;44.33;;;27.08;;